sensor_id;sensor_type;location;lat;lon;timestamp;pressure;altitude;pressure_sealevel;temperature;humidity
72921;BME280;61064;51.654;5.476;2023-10-19T00:01:57;99252.53;;;11.68;97.98
72921;BME280;61064;51.654;5.476;2023-10-19T00:04:25;99312.22;;;11.98;98.27
72921;BME280;61064;51.654;5.476;2023-10-19T00:07:02;99308.66;;;11.99;98.29
72921;BME280;61064;51.654;5.476;2023-10-19T00:09:30;99242.91;;;11.63;98.37
72921;BME280;61064;51.654;5.476;2023-10-19T00:12:09;99277.19;;;11.78;98.58
72921;BME280;61064;51.654;5.476;2023-10-19T00:14:52;99263.91;;;11.77;98.73
72921;BME280;61064;51.654;5.476;2023-10-19T00:17:19;99281.44;;;11.87;98.51
72921;BME280;61064;51.654;5.476;2023-10-19T00:19:46;99291.13;;;11.89;98.76
72921;BME280;61064;51.654;5.476;2023-10-19T00:22:44;99243.84;;;11.60;98.80
72921;BME280;61064;51.654;5.476;2023-10-19T00:25:11;99254.22;;;11.71;98.81
72921;BME280;61064;51.654;5.476;2023-10-19T00:27:47;99280.44;;;11.91;98.94
72921;BME280;61064;51.654;5.476;2023-10-19T00:30:14;99226.19;;;11.56;99.07
72921;BME280;61064;51.654;5.476;2023-10-19T00:32:46;99276.75;;;11.98;99.14
72921;BME280;61064;51.654;5.476;2023-10-19T00:35:13;99240.78;;;11.79;99.03
72921;BME280;61064;51.654;5.476;2023-10-19T00:38:00;99279.22;;;12.04;99.19
72921;BME280;61064;51.654;5.476;2023-10-19T00:40:54;99220.53;;;11.70;99.25
72921;BME280;61064;51.654;5.476;2023-10-19T00:43:49;99238.81;;;11.87;99.25
72921;BME280;61064;51.654;5.476;2023-10-19T00:46:18;99277.22;;;12.14;99.38
72921;BME280;61064;51.654;5.476;2023-10-19T00:49:04;99245.59;;;11.98;99.85
72921;BME280;61064;51.654;5.476;2023-10-19T00:51:40;99218.25;;;11.92;100.00
72921;BME280;61064;51.654;5.476;2023-10-19T00:54:30;99295.06;;;12.45;99.99
72921;BME280;61064;51.654;5.476;2023-10-19T00:57:15;99263.38;;;12.33;100.00
72921;BME280;61064;51.654;5.476;2023-10-19T00:59:45;99203.78;;;12.02;100.00
72921;BME280;61064;51.654;5.476;2023-10-19T01:02:34;99231.66;;;12.23;99.96
72921;BME280;61064;51.654;5.476;2023-10-19T01:05:05;99248.88;;;12.43;100.00
72921;BME280;61064;51.654;5.476;2023-10-19T01:07:31;99282.94;;;12.66;100.00
72921;BME280;61064;51.654;5.476;2023-10-19T01:10:09;99195.41;;;12.16;100.00
72921;BME280;61064;51.654;5.476;2023-10-19T01:12:38;99249.47;;;12.55;100.00
72921;BME280;61064;51.654;5.476;2023-10-19T01:15:16;99247.78;;;12.52;100.00
72921;BME280;61064;51.654;5.476;2023-10-19T01:17:45;99220.69;;;12.35;100.00
72921;BME280;61064;51.654;5.476;2023-10-19T01:20:21;99195.84;;;12.33;100.00
72921;BME280;61064;51.654;5.476;2023-10-19T01:23:04;99186.97;;;12.32;100.00
72921;BME280;61064;51.654;5.476;2023-10-19T01:25:45;99285.84;;;12.91;100.00
72921;BME280;61064;51.654;5.476;2023-10-19T01:28:16;99191.19;;;12.41;100.00
72921;BME280;61064;51.654;5.476;2023-10-19T01:30:47;99205.81;;;12.59;100.00
72921;BME280;61064;51.654;5.476;2023-10-19T01:33:19;99238.03;;;12.82;100.00
72921;BME280;61064;51.654;5.476;2023-10-19T01:36:06;99199.34;;;12.66;100.00
72921;BME280;61064;51.654;5.476;2023-10-19T01:39:01;99214.97;;;12.81;100.00
72921;BME280;61064;51.654;5.476;2023-10-19T01:41:37;99181.63;;;12.65;100.00
72921;BME280;61064;51.654;5.476;2023-10-19T01:44:03;99232.03;;;13.05;100.00
72921;BME280;61064;51.654;5.476;2023-10-19T01:46:35;99171.41;;;12.79;100.00
72921;BME280;61064;51.654;5.476;2023-10-19T01:49:09;99162.41;;;12.83;100.00
72921;BME280;61064;51.654;5.476;2023-10-19T01:51:41;99259.56;;;13.38;100.00
72921;BME280;61064;51.654;5.476;2023-10-19T01:54:11;99231.44;;;13.26;100.00
72921;BME280;61064;51.654;5.476;2023-10-19T01:56:39;99170.88;;;12.97;100.00
72921;BME280;61064;51.654;5.476;2023-10-19T01:59:11;99248.63;;;13.47;100.00
72921;BME280;61064;51.654;5.476;2023-10-19T02:01:37;99206.34;;;13.31;100.00
72921;BME280;61064;51.654;5.476;2023-10-19T02:04:10;99249.03;;;13.61;100.00
72921;BME280;61064;51.654;5.476;2023-10-19T02:06:38;99242.97;;;13.56;100.00
72921;BME280;61064;51.654;5.476;2023-10-19T02:09:10;99165.78;;;13.19;100.00
72921;BME280;61064;51.654;5.476;2023-10-19T02:11:52;99177.97;;;13.27;100.00
72921;BME280;61064;51.654;5.476;2023-10-19T02:14:19;99178.69;;;13.32;100.00
72921;BME280;61064;51.654;5.476;2023-10-19T02:16:49;99232.00;;;13.65;100.00
72921;BME280;61064;51.654;5.476;2023-10-19T02:19:33;99175.03;;;13.37;100.00
72921;BME280;61064;51.654;5.476;2023-10-19T02:22:05;99229.06;;;13.72;100.00
72921;BME280;61064;51.654;5.476;2023-10-19T02:24:37;99227.19;;;13.76;100.00
72921;BME280;61064;51.654;5.476;2023-10-19T02:27:04;99178.13;;;13.51;100.00
72921;BME280;61064;51.654;5.476;2023-10-19T02:29:37;99200.75;;;13.67;100.00
72921;BME280;61064;51.654;5.476;2023-10-19T02:32:06;99203.94;;;13.78;100.00
72921;BME280;61064;51.654;5.476;2023-10-19T02:34:45;99181.25;;;13.65;100.00
72921;BME280;61064;51.654;5.476;2023-10-19T02:37:10;99178.31;;;13.72;100.00
72921;BME280;61064;51.654;5.476;2023-10-19T02:39:36;99236.03;;;14.04;100.00
72921;BME280;61064;51.654;5.476;2023-10-19T02:42:01;99255.69;;;14.30;100.00
72921;BME280;61064;51.654;5.476;2023-10-19T02:44:29;99253.03;;;14.30;100.00
72921;BME280;61064;51.654;5.476;2023-10-19T02:47:06;99170.84;;;13.82;100.00
72921;BME280;61064;51.654;5.476;2023-10-19T02:49:35;99190.44;;;14.09;100.00
72921;BME280;61064;51.654;5.476;2023-10-19T02:52:06;99229.00;;;14.28;100.00
72921;BME280;61064;51.654;5.476;2023-10-19T02:54:35;99220.81;;;14.33;100.00
72921;BME280;61064;51.654;5.476;2023-10-19T02:57:03;99165.59;;;14.05;100.00
72921;BME280;61064;51.654;5.476;2023-10-19T02:59:32;99226.09;;;14.34;100.00
72921;BME280;61064;51.654;5.476;2023-10-19T03:01:59;99203.31;;;14.23;100.00
72921;BME280;61064;51.654;5.476;2023-10-19T03:04:34;99170.84;;;14.08;100.00
72921;BME280;61064;51.654;5.476;2023-10-19T03:07:13;99156.81;;;14.02;100.00
72921;BME280;61064;51.654;5.476;2023-10-19T03:09:38;99219.69;;;14.40;100.00
72921;BME280;61064;51.654;5.476;2023-10-19T03:12:04;99246.34;;;14.68;100.00
72921;BME280;61064;51.654;5.476;2023-10-19T03:14:47;99181.56;;;14.33;100.00
72921;BME280;61064;51.654;5.476;2023-10-19T03:17:16;99214.84;;;14.51;100.00
72921;BME280;61064;51.654;5.476;2023-10-19T03:19:41;99217.31;;;14.57;100.00
72921;BME280;61064;51.654;5.476;2023-10-19T03:22:10;99177.41;;;14.25;100.00
72921;BME280;61064;51.654;5.476;2023-10-19T03:24:40;99159.66;;;14.22;100.00
72921;BME280;61064;51.654;5.476;2023-10-19T03:27:09;99245.19;;;14.76;100.00
72921;BME280;61064;51.654;5.476;2023-10-19T03:29:47;99163.91;;;14.28;100.00
72921;BME280;61064;51.654;5.476;2023-10-19T03:32:21;99159.41;;;14.30;100.00
72921;BME280;61064;51.654;5.476;2023-10-19T03:34:54;99228.84;;;14.82;100.00
72921;BME280;61064;51.654;5.476;2023-10-19T03:37:30;99178.31;;;14.50;100.00
72921;BME280;61064;51.654;5.476;2023-10-19T03:40:12;99144.94;;;14.35;100.00
72921;BME280;61064;51.654;5.476;2023-10-19T03:42:41;99133.34;;;14.35;100.00
72921;BME280;61064;51.654;5.476;2023-10-19T03:45:09;99182.34;;;14.62;100.00
72921;BME280;61064;51.654;5.476;2023-10-19T03:47:43;99137.78;;;14.36;100.00
72921;BME280;61064;51.654;5.476;2023-10-19T03:50:14;99210.84;;;14.87;100.00
72921;BME280;61064;51.654;5.476;2023-10-19T03:52:45;99148.16;;;14.45;100.00
72921;BME280;61064;51.654;5.476;2023-10-19T03:55:11;99150.75;;;14.48;100.00
72921;BME280;61064;51.654;5.476;2023-10-19T03:57:41;99142.16;;;14.38;100.00
72921;BME280;61064;51.654;5.476;2023-10-19T04:00:15;99136.81;;;14.38;100.00
72921;BME280;61064;51.654;5.476;2023-10-19T04:02:49;99179.41;;;14.69;100.00
72921;BME280;61064;51.654;5.476;2023-10-19T04:05:18;99210.78;;;14.89;100.00
72921;BME280;61064;51.654;5.476;2023-10-19T04:07:51;99184.69;;;14.71;100.00
72921;BME280;61064;51.654;5.476;2023-10-19T04:10:37;99120.75;;;14.38;100.00
72921;BME280;61064;51.654;5.476;2023-10-19T04:13:05;99203.78;;;14.85;100.00
72921;BME280;61064;51.654;5.476;2023-10-19T04:15:35;99169.78;;;14.64;100.00
72921;BME280;61064;51.654;5.476;2023-10-19T04:18:05;99115.69;;;14.31;100.00
72921;BME280;61064;51.654;5.476;2023-10-19T04:21:03;99173.44;;;14.61;100.00
72921;BME280;61064;51.654;5.476;2023-10-19T04:23:28;99205.16;;;14.72;100.00
72921;BME280;61064;51.654;5.476;2023-10-19T04:25:58;99125.75;;;14.23;100.00
72921;BME280;61064;51.654;5.476;2023-10-19T04:28:35;99123.25;;;14.18;100.00
72921;BME280;61064;51.654;5.476;2023-10-19T04:31:16;99182.91;;;14.46;100.00
72921;BME280;61064;51.654;5.476;2023-10-19T04:33:45;99167.13;;;14.39;100.00
72921;BME280;61064;51.654;5.476;2023-10-19T04:36:15;99170.81;;;14.35;100.00
72921;BME280;61064;51.654;5.476;2023-10-19T04:38:40;99148.38;;;14.14;100.00
72921;BME280;61064;51.654;5.476;2023-10-19T04:41:10;99173.84;;;14.24;100.00
72921;BME280;61064;51.654;5.476;2023-10-19T04:43:37;99148.66;;;14.05;100.00
72921;BME280;61064;51.654;5.476;2023-10-19T04:46:07;99176.03;;;14.13;100.00
72921;BME280;61064;51.654;5.476;2023-10-19T04:48:35;99184.16;;;14.10;100.00
72921;BME280;61064;51.654;5.476;2023-10-19T04:51:10;99140.53;;;13.83;100.00
72921;BME280;61064;51.654;5.476;2023-10-19T04:53:39;99128.44;;;13.71;100.00
72921;BME280;61064;51.654;5.476;2023-10-19T04:56:05;99183.34;;;14.08;100.00
72921;BME280;61064;51.654;5.476;2023-10-19T04:58:34;99173.09;;;13.94;100.00
72921;BME280;61064;51.654;5.476;2023-10-19T05:01:06;99135.84;;;13.63;100.00
72921;BME280;61064;51.654;5.476;2023-10-19T05:03:32;99180.38;;;13.91;100.00
72921;BME280;61064;51.654;5.476;2023-10-19T05:06:01;99155.88;;;13.77;100.00
72921;BME280;61064;51.654;5.476;2023-10-19T05:08:29;99131.59;;;13.58;100.00
72921;BME280;61064;51.654;5.476;2023-10-19T05:10:56;99188.22;;;13.95;100.00
72921;BME280;61064;51.654;5.476;2023-10-19T05:13:50;99137.75;;;13.60;100.00
72921;BME280;61064;51.654;5.476;2023-10-19T05:16:25;99127.31;;;13.52;100.00
72921;BME280;61064;51.654;5.476;2023-10-19T05:18:53;99151.78;;;13.66;100.00
72921;BME280;61064;51.654;5.476;2023-10-19T05:21:18;99143.72;;;13.68;100.00
72921;BME280;61064;51.654;5.476;2023-10-19T05:23:44;99218.88;;;14.11;100.00
72921;BME280;61064;51.654;5.476;2023-10-19T05:26:09;99152.38;;;13.76;100.00
72921;BME280;61064;51.654;5.476;2023-10-19T05:28:35;99176.06;;;13.87;100.00
72921;BME280;61064;51.654;5.476;2023-10-19T05:31:00;99142.63;;;13.73;100.00
72921;BME280;61064;51.654;5.476;2023-10-19T05:33:29;99202.72;;;14.14;100.00
72921;BME280;61064;51.654;5.476;2023-10-19T05:35:54;99223.59;;;14.30;100.00
72921;BME280;61064;51.654;5.476;2023-10-19T05:38:20;99165.03;;;13.96;100.00
72921;BME280;61064;51.654;5.476;2023-10-19T05:40:47;99178.03;;;14.06;100.00
72921;BME280;61064;51.654;5.476;2023-10-19T05:43:15;99203.16;;;14.27;100.00
72921;BME280;61064;51.654;5.476;2023-10-19T05:45:41;99225.34;;;14.31;100.00
72921;BME280;61064;51.654;5.476;2023-10-19T05:48:06;99193.72;;;14.17;100.00
72921;BME280;61064;51.654;5.476;2023-10-19T05:50:33;99182.44;;;14.09;100.00
72921;BME280;61064;51.654;5.476;2023-10-19T05:52:59;99213.06;;;14.25;100.00
72921;BME280;61064;51.654;5.476;2023-10-19T05:55:25;99155.38;;;13.92;100.00
72921;BME280;61064;51.654;5.476;2023-10-19T05:57:51;99227.78;;;14.38;100.00
72921;BME280;61064;51.654;5.476;2023-10-19T06:00:16;99236.59;;;14.42;100.00
72921;BME280;61064;51.654;5.476;2023-10-19T06:02:44;99155.06;;;14.01;100.00
72921;BME280;61064;51.654;5.476;2023-10-19T06:05:13;99145.50;;;13.94;100.00
72921;BME280;61064;51.654;5.476;2023-10-19T06:07:43;99210.09;;;14.33;100.00
72921;BME280;61064;51.654;5.476;2023-10-19T06:10:14;99240.69;;;14.52;100.00
72921;BME280;61064;51.654;5.476;2023-10-19T06:12:47;99218.25;;;14.30;100.00
72921;BME280;61064;51.654;5.476;2023-10-19T06:15:14;99205.91;;;14.26;100.00
72921;BME280;61064;51.654;5.476;2023-10-19T06:17:45;99178.91;;;14.07;100.00
72921;BME280;61064;51.654;5.476;2023-10-19T06:20:12;99165.53;;;14.07;100.00
72921;BME280;61064;51.654;5.476;2023-10-19T06:22:51;99221.59;;;14.36;100.00
72921;BME280;61064;51.654;5.476;2023-10-19T06:25:18;99229.53;;;14.39;100.00
72921;BME280;61064;51.654;5.476;2023-10-19T06:27:49;99205.97;;;14.24;100.00
72921;BME280;61064;51.654;5.476;2023-10-19T06:30:19;99227.84;;;14.37;100.00
72921;BME280;61064;51.654;5.476;2023-10-19T06:32:52;99193.66;;;14.19;100.00
72921;BME280;61064;51.654;5.476;2023-10-19T06:35:20;99222.41;;;14.38;100.00
72921;BME280;61064;51.654;5.476;2023-10-19T06:37:46;99224.22;;;14.38;100.00
72921;BME280;61064;51.654;5.476;2023-10-19T06:40:15;99249.69;;;14.49;100.00
72921;BME280;61064;51.654;5.476;2023-10-19T06:42:45;99212.97;;;14.27;100.00
72921;BME280;61064;51.654;5.476;2023-10-19T06:45:12;99237.50;;;14.41;100.00
72921;BME280;61064;51.654;5.476;2023-10-19T06:47:49;99254.16;;;14.49;100.00
72921;BME280;61064;51.654;5.476;2023-10-19T06:50:18;99259.41;;;14.52;100.00
72921;BME280;61064;51.654;5.476;2023-10-19T06:52:45;99243.78;;;14.40;100.00
72921;BME280;61064;51.654;5.476;2023-10-19T06:55:17;99219.50;;;14.20;100.00
72921;BME280;61064;51.654;5.476;2023-10-19T06:57:50;99264.59;;;14.56;100.00
72921;BME280;61064;51.654;5.476;2023-10-19T07:00:21;99218.25;;;14.30;100.00
72921;BME280;61064;51.654;5.476;2023-10-19T07:02:57;99224.50;;;14.29;100.00
72921;BME280;61064;51.654;5.476;2023-10-19T07:05:28;99240.03;;;14.45;100.00
72921;BME280;61064;51.654;5.476;2023-10-19T07:07:58;99271.53;;;14.62;100.00
72921;BME280;61064;51.654;5.476;2023-10-19T07:10:25;99241.22;;;14.35;100.00
72921;BME280;61064;51.654;5.476;2023-10-19T07:12:53;99285.75;;;14.64;100.00
72921;BME280;61064;51.654;5.476;2023-10-19T07:15:20;99250.56;;;14.50;100.00
72921;BME280;61064;51.654;5.476;2023-10-19T07:17:49;99296.16;;;14.72;100.00
72921;BME280;61064;51.654;5.476;2023-10-19T07:20:19;99288.25;;;14.69;100.00
72921;BME280;61064;51.654;5.476;2023-10-19T07:23:00;99285.59;;;14.69;100.00
72921;BME280;61064;51.654;5.476;2023-10-19T07:25:48;99240.19;;;14.41;100.00
72921;BME280;61064;51.654;5.476;2023-10-19T07:28:20;99272.53;;;14.60;100.00
72921;BME280;61064;51.654;5.476;2023-10-19T07:30:47;99208.50;;;14.27;100.00
72921;BME280;61064;51.654;5.476;2023-10-19T07:33:13;99215.44;;;14.33;100.00
72921;BME280;61064;51.654;5.476;2023-10-19T07:35:45;99252.84;;;14.61;100.00
72921;BME280;61064;51.654;5.476;2023-10-19T07:38:17;99252.81;;;14.62;100.00
72921;BME280;61064;51.654;5.476;2023-10-19T07:40:49;99255.44;;;14.64;100.00
72921;BME280;61064;51.654;5.476;2023-10-19T07:43:14;99293.03;;;14.85;100.00
72921;BME280;61064;51.654;5.476;2023-10-19T07:45:42;99247.22;;;14.68;100.00
72921;BME280;61064;51.654;5.476;2023-10-19T07:48:08;99268.97;;;14.84;100.00
72921;BME280;61064;51.654;5.476;2023-10-19T07:50:37;99234.06;;;14.62;100.00
72921;BME280;61064;51.654;5.476;2023-10-19T07:53:03;99265.41;;;14.83;100.00
72921;BME280;61064;51.654;5.476;2023-10-19T07:55:30;99231.53;;;14.59;100.00
72921;BME280;61064;51.654;5.476;2023-10-19T07:57:59;99281.03;;;14.95;100.00
72921;BME280;61064;51.654;5.476;2023-10-19T08:00:26;99281.88;;;14.97;100.00
72921;BME280;61064;51.654;5.476;2023-10-19T08:02:54;99242.41;;;14.78;100.00
72921;BME280;61064;51.654;5.476;2023-10-19T08:05:21;99272.78;;;15.02;100.00
72921;BME280;61064;51.654;5.476;2023-10-19T08:07:48;99269.13;;;15.04;100.00
72921;BME280;61064;51.654;5.476;2023-10-19T08:10:19;99251.50;;;14.98;100.00
72921;BME280;61064;51.654;5.476;2023-10-19T08:12:46;99266.16;;;15.12;100.00
72921;BME280;61064;51.654;5.476;2023-10-19T08:15:17;99183.97;;;14.66;100.00
72921;BME280;61064;51.654;5.476;2023-10-19T08:17:45;99205.63;;;14.83;100.00
72921;BME280;61064;51.654;5.476;2023-10-19T08:20:12;99172.28;;;14.68;100.00
72921;BME280;61064;51.654;5.476;2023-10-19T08:22:44;99258.59;;;15.23;100.00
72921;BME280;61064;51.654;5.476;2023-10-19T08:25:12;99241.94;;;15.15;100.00
72921;BME280;61064;51.654;5.476;2023-10-19T08:27:40;99231.38;;;15.10;100.00
72921;BME280;61064;51.654;5.476;2023-10-19T08:30:10;99259.28;;;15.28;100.00
72921;BME280;61064;51.654;5.476;2023-10-19T08:32:39;99241.47;;;15.27;100.00
72921;BME280;61064;51.654;5.476;2023-10-19T08:35:05;99237.97;;;15.25;100.00
72921;BME280;61064;51.654;5.476;2023-10-19T08:37:32;99253.66;;;15.35;100.00
72921;BME280;61064;51.654;5.476;2023-10-19T08:39:59;99241.06;;;15.37;100.00
72921;BME280;61064;51.654;5.476;2023-10-19T08:42:24;99206.94;;;15.19;100.00
72921;BME280;61064;51.654;5.476;2023-10-19T08:44:50;99236.22;;;15.47;100.00
72921;BME280;61064;51.654;5.476;2023-10-19T08:47:16;99201.03;;;15.33;100.00
72921;BME280;61064;51.654;5.476;2023-10-19T08:49:42;99214.63;;;15.52;100.00
72921;BME280;61064;51.654;5.476;2023-10-19T08:52:07;99221.31;;;15.63;100.00
72921;BME280;61064;51.654;5.476;2023-10-19T08:54:34;99251.63;;;15.87;100.00
72921;BME280;61064;51.654;5.476;2023-10-19T08:57:00;99224.13;;;15.82;100.00
72921;BME280;61064;51.654;5.476;2023-10-19T08:59:26;99196.06;;;15.69;100.00
72921;BME280;61064;51.654;5.476;2023-10-19T09:02:02;99241.88;;;16.06;100.00
72921;BME280;61064;51.654;5.476;2023-10-19T09:04:28;99219.88;;;15.98;100.00
72921;BME280;61064;51.654;5.476;2023-10-19T09:06:54;99210.81;;;16.01;100.00
72921;BME280;61064;51.654;5.476;2023-10-19T09:09:20;99208.50;;;16.13;100.00
72921;BME280;61064;51.654;5.476;2023-10-19T09:11:49;99203.56;;;16.25;100.00
72921;BME280;61064;51.654;5.476;2023-10-19T09:14:15;99239.06;;;16.51;100.00
72921;BME280;61064;51.654;5.476;2023-10-19T09:16:56;99218.47;;;16.52;100.00
72921;BME280;61064;51.654;5.476;2023-10-19T09:19:44;99183.22;;;16.39;100.00
72921;BME280;61064;51.654;5.476;2023-10-19T09:22:12;99170.34;;;16.47;100.00
72921;BME280;61064;51.654;5.476;2023-10-19T09:24:45;99171.38;;;16.65;100.00
72921;BME280;61064;51.654;5.476;2023-10-19T09:27:11;99214.50;;;17.01;100.00
72921;BME280;61064;51.654;5.476;2023-10-19T09:29:38;99211.03;;;17.18;100.00
72921;BME280;61064;51.654;5.476;2023-10-19T09:32:05;99149.13;;;17.00;100.00
72921;BME280;61064;51.654;5.476;2023-10-19T09:34:31;99195.28;;;17.29;100.00
72921;BME280;61064;51.654;5.476;2023-10-19T09:37:04;99182.47;;;17.34;99.98
72921;BME280;61064;51.654;5.476;2023-10-19T09:39:30;99207.94;;;17.64;99.84
72921;BME280;61064;51.654;5.476;2023-10-19T09:42:09;99191.81;;;17.64;99.59
72921;BME280;61064;51.654;5.476;2023-10-19T09:44:48;99209.44;;;17.89;99.53
72921;BME280;61064;51.654;5.476;2023-10-19T09:47:25;99166.19;;;17.74;99.34
72921;BME280;61064;51.654;5.476;2023-10-19T09:49:51;99207.63;;;18.06;98.87
72921;BME280;61064;51.654;5.476;2023-10-19T09:52:17;99205.81;;;18.07;98.04
72921;BME280;61064;51.654;5.476;2023-10-19T09:54:52;99155.22;;;17.79;97.91
72921;BME280;61064;51.654;5.476;2023-10-19T09:57:27;99192.47;;;18.05;97.67
72921;BME280;61064;51.654;5.476;2023-10-19T10:00:02;99189.38;;;18.13;97.50
72921;BME280;61064;51.654;5.476;2023-10-19T10:02:34;99198.88;;;18.20;97.43
72921;BME280;61064;51.654;5.476;2023-10-19T10:04:59;99183.03;;;18.14;97.20
72921;BME280;61064;51.654;5.476;2023-10-19T10:07:24;99197.19;;;18.17;96.64
72921;BME280;61064;51.654;5.476;2023-10-19T10:09:50;99161.56;;;17.95;96.52
72921;BME280;61064;51.654;5.476;2023-10-19T10:15:09;99173.94;;;17.99;96.55
72921;BME280;61064;51.654;5.476;2023-10-19T10:17:36;99146.53;;;17.91;96.77
72921;BME280;61064;51.654;5.476;2023-10-19T10:22:37;99143.91;;;17.90;96.68
72921;BME280;61064;51.654;5.476;2023-10-19T10:25:02;99184.72;;;18.16;96.62
72921;BME280;61064;51.654;5.476;2023-10-19T10:27:28;99129.56;;;17.89;96.28
72921;BME280;61064;51.654;5.476;2023-10-19T10:30:00;99152.72;;;17.93;96.14
72921;BME280;61064;51.654;5.476;2023-10-19T10:32:50;99200.22;;;18.28;96.24
72921;BME280;61064;51.654;5.476;2023-10-19T10:38:03;99135.28;;;18.00;95.74
72921;BME280;61064;51.654;5.476;2023-10-19T10:40:31;99152.56;;;18.31;95.51
72921;BME280;61064;51.654;5.476;2023-10-19T10:43:07;99133.66;;;18.15;95.25
72921;BME280;61064;51.654;5.476;2023-10-19T10:45:36;99181.56;;;18.60;95.00
72921;BME280;61064;51.654;5.476;2023-10-19T10:48:14;99151.44;;;18.52;94.42
72921;BME280;61064;51.654;5.476;2023-10-19T10:53:36;99134.41;;;18.51;93.86
72921;BME280;61064;51.654;5.476;2023-10-19T10:56:11;99144.97;;;18.56;93.18
72921;BME280;61064;51.654;5.476;2023-10-19T10:58:48;99094.34;;;18.28;92.60
72921;BME280;61064;51.654;5.476;2023-10-19T11:01:37;99115.69;;;18.33;92.93
72921;BME280;61064;51.654;5.476;2023-10-19T11:04:11;99115.19;;;18.24;92.93
72921;BME280;61064;51.654;5.476;2023-10-19T11:06:53;99114.94;;;18.29;93.25
72921;BME280;61064;51.654;5.476;2023-10-19T11:09:24;99125.47;;;18.34;93.36
72921;BME280;61064;51.654;5.476;2023-10-19T11:11:55;99142.19;;;18.57;92.98
72921;BME280;61064;51.654;5.476;2023-10-19T11:14:26;99158.41;;;18.73;92.63
72921;BME280;61064;51.654;5.476;2023-10-19T11:17:19;99130.69;;;18.54;92.57
72921;BME280;61064;51.654;5.476;2023-10-19T11:19:56;99119.44;;;18.46;92.31
72921;BME280;61064;51.654;5.476;2023-10-19T11:22:48;99171.22;;;18.85;92.57
72921;BME280;61064;51.654;5.476;2023-10-19T11:25:23;99138.47;;;18.60;92.23
72921;BME280;61064;51.654;5.476;2023-10-19T11:28:32;99127.25;;;18.50;92.32
72921;BME280;61064;51.654;5.476;2023-10-19T11:31:12;99162.22;;;18.69;92.46
72921;BME280;61064;51.654;5.476;2023-10-19T11:33:43;99145.69;;;18.59;92.47
72921;BME280;61064;51.654;5.476;2023-10-19T11:36:09;99100.41;;;18.33;92.49
72921;BME280;61064;51.654;5.476;2023-10-19T11:38:48;99136.72;;;18.59;92.53
72921;BME280;61064;51.654;5.476;2023-10-19T11:41:17;99082.88;;;18.24;92.42
72921;BME280;61064;51.654;5.476;2023-10-19T11:43:47;99114.31;;;18.41;92.33
72921;BME280;61064;51.654;5.476;2023-10-19T11:46:24;99096.50;;;18.39;92.61
72921;BME280;61064;51.654;5.476;2023-10-19T11:49:10;99067.28;;;18.31;92.53
72921;BME280;61064;51.654;5.476;2023-10-19T11:51:45;99115.88;;;18.62;92.76
72921;BME280;61064;51.654;5.476;2023-10-19T11:54:16;99064.97;;;18.41;92.62
72921;BME280;61064;51.654;5.476;2023-10-19T11:57:12;99129.50;;;18.77;92.70
72921;BME280;61064;51.654;5.476;2023-10-19T11:59:53;99130.25;;;18.79;92.67
72921;BME280;61064;51.654;5.476;2023-10-19T12:02:34;99107.66;;;18.65;92.31
72921;BME280;61064;51.654;5.476;2023-10-19T12:05:01;99044.31;;;18.24;92.26
72921;BME280;61064;51.654;5.476;2023-10-19T12:07:42;99084.63;;;18.43;92.15
72921;BME280;61064;51.654;5.476;2023-10-19T12:10:10;99052.09;;;18.13;92.26
72921;BME280;61064;51.654;5.476;2023-10-19T12:12:46;99102.50;;;18.44;92.03
72921;BME280;61064;51.654;5.476;2023-10-19T12:15:22;99081.00;;;18.26;92.33
72921;BME280;61064;51.654;5.476;2023-10-19T12:17:55;99095.78;;;18.35;92.38
72921;BME280;61064;51.654;5.476;2023-10-19T12:20:27;99076.00;;;18.19;92.67
72921;BME280;61064;51.654;5.476;2023-10-19T12:22:58;99102.59;;;18.25;92.80
72921;BME280;61064;51.654;5.476;2023-10-19T12:25:24;99069.69;;;18.03;92.97
72921;BME280;61064;51.654;5.476;2023-10-19T12:27:57;99068.44;;;17.93;93.17
72921;BME280;61064;51.654;5.476;2023-10-19T12:30:23;99091.41;;;18.00;93.45
72921;BME280;61064;51.654;5.476;2023-10-19T12:32:51;99098.66;;;18.15;93.74
72921;BME280;61064;51.654;5.476;2023-10-19T12:35:17;99133.09;;;18.25;94.09
72921;BME280;61064;51.654;5.476;2023-10-19T12:37:48;99076.56;;;17.91;94.27
72921;BME280;61064;51.654;5.476;2023-10-19T12:40:17;99136.09;;;18.19;94.21
72921;BME280;61064;51.654;5.476;2023-10-19T12:42:55;99075.63;;;17.92;94.17
72921;BME280;61064;51.654;5.476;2023-10-19T12:45:24;99055.13;;;17.72;94.04
72921;BME280;61064;51.654;5.476;2023-10-19T12:47:52;99104.75;;;18.01;94.21
72921;BME280;61064;51.654;5.476;2023-10-19T12:50:21;99095.28;;;17.94;94.07
72921;BME280;61064;51.654;5.476;2023-10-19T12:52:50;99049.09;;;17.67;94.11
72921;BME280;61064;51.654;5.476;2023-10-19T12:55:17;99106.25;;;18.07;93.98
72921;BME280;61064;51.654;5.476;2023-10-19T12:57:42;99090.19;;;17.88;93.73
72921;BME280;61064;51.654;5.476;2023-10-19T13:00:10;99060.03;;;17.81;93.93
72921;BME280;61064;51.654;5.476;2023-10-19T13:02:52;99095.78;;;18.01;93.89
72921;BME280;61064;51.654;5.476;2023-10-19T13:05:27;99095.91;;;17.99;93.95
72921;BME280;61064;51.654;5.476;2023-10-19T13:07:54;99084.66;;;17.91;93.95
72921;BME280;61064;51.654;5.476;2023-10-19T13:10:27;99099.59;;;17.97;94.17
72921;BME280;61064;51.654;5.476;2023-10-19T13:12:52;99059.88;;;17.67;94.04
72921;BME280;61064;51.654;5.476;2023-10-19T13:15:19;99054.41;;;17.69;93.97
72921;BME280;61064;51.654;5.476;2023-10-19T13:17:47;99054.41;;;17.69;94.21
72921;BME280;61064;51.654;5.476;2023-10-19T13:20:13;99042.72;;;17.70;94.17
72921;BME280;61064;51.654;5.476;2023-10-19T13:22:43;99053.63;;;17.67;94.43
72921;BME280;61064;51.654;5.476;2023-10-19T13:25:08;99041.91;;;17.68;94.45
72921;BME280;61064;51.654;5.476;2023-10-19T13:27:35;98981.94;;;17.31;94.57